Time;durP1;ratioP1;P1;durP2;ratioP2;P2;SDS_P1;SDS_P2;PMS_P1;PMS_P2;Temp;Humidity;BMP_temperature;BMP_pressure;BME280_temperature;BME280_humidity;BME280_pressure;Samples;Min_cycle;Max_cycle;Signal;HPM_P1;HPM_P2
2021/12/26 00:00:53;;;;;;;5.10;1.57;;;-4.70;60.50;;;;;;4790369;29;20108;-73
2021/12/26 00:03:20;;;;;;;2.27;1.10;;;-4.70;60.50;;;;;;4801327;29;20046;-75
2021/12/26 00:05:46;;;;;;;3.87;1.50;;;-4.80;60.40;;;;;;4805051;29;20215;-73
2021/12/26 00:08:12;;;;;;;2.83;1.10;;;-4.80;60.30;;;;;;4822709;29;20042;-73
2021/12/26 00:10:38;;;;;;;4.20;1.50;;;-4.70;60.20;;;;;;4825128;29;20126;-73
2021/12/26 00:13:04;;;;;;;5.37;1.70;;;-4.80;59.90;;;;;;4821809;29;20096;-74
2021/12/26 00:15:30;;;;;;;4.53;1.23;;;-4.80;59.70;;;;;;4822505;29;20359;-75
2021/12/26 00:17:55;;;;;;;3.70;1.40;;;-4.70;59.70;;;;;;4823690;29;20110;-76
2021/12/26 00:20:21;;;;;;;3.20;1.27;;;-4.80;59.80;;;;;;4824635;29;20077;-75
2021/12/26 00:22:48;;;;;;;4.53;1.30;;;-4.80;59.20;;;;;;4821707;29;20082;-75
2021/12/26 00:25:15;;;;;;;3.27;1.47;;;-4.70;59.30;;;;;;4801443;29;20076;-74
2021/12/26 00:27:42;;;;;;;3.43;1.20;;;-4.80;59.00;;;;;;4820744;29;20391;-75
2021/12/26 00:30:17;;;;;;;3.03;1.10;;;-4.80;59.10;;;;;;4807562;29;20047;-75
2021/12/26 00:32:43;;;;;;;1.87;1.30;;;-4.70;59.10;;;;;;4819682;29;20054;-75
2021/12/26 00:35:11;;;;;;;3.50;1.40;;;-4.80;59.10;;;;;;4824398;29;20441;-74
2021/12/26 00:37:37;;;;;;;3.07;1.30;;;-4.80;59.10;;;;;;4806148;29;20513;-74
2021/12/26 00:40:04;;;;;;;3.60;1.50;;;-4.80;58.80;;;;;;4823186;29;20038;-75
2021/12/26 00:42:30;;;;;;;4.13;1.40;;;-4.80;58.70;;;;;;4818808;29;20098;-75
2021/12/26 00:44:56;;;;;;;2.83;1.30;;;-4.80;58.80;;;;;;4821982;29;20078;-75
2021/12/26 00:47:22;;;;;;;2.40;0.93;;;-4.80;58.40;;;;;;4815855;29;20069;-79
2021/12/26 00:49:47;;;;;;;3.20;1.20;;;-4.70;58.70;;;;;;4807045;29;20046;-79
2021/12/26 00:52:13;;;;;;;3.53;1.10;;;-4.80;58.20;;;;;;4790014;29;20059;-79
2021/12/26 00:54:39;;;;;;;3.60;1.20;;;-4.80;58.20;;;;;;4822175;29;20046;-78
2021/12/26 00:57:05;;;;;;;4.00;1.07;;;-4.70;58.10;;;;;;4819731;29;20096;-80
2021/12/26 00:59:31;;;;;;;2.57;1.20;;;-4.70;58.00;;;;;;4821218;29;20046;-80
2021/12/26 01:01:57;;;;;;;2.63;1.20;;;-4.70;57.90;;;;;;4824266;29;20050;-79
2021/12/26 01:04:24;;;;;;;1.93;1.00;;;-4.80;57.40;;;;;;4801853;29;20076;-79
2021/12/26 01:06:50;;;;;;;4.97;1.53;;;-4.80;57.60;;;;;;4807832;29;20050;-79
2021/12/26 01:09:22;;;;;;;5.47;1.30;;;-4.70;57.30;;;;;;4789080;29;20047;-80
2021/12/26 01:11:52;;;;;;;4.30;1.43;;;-4.70;57.30;;;;;;4823864;29;20376;-80
2021/12/26 01:14:25;;;;;;;5.17;1.20;;;-4.70;56.90;;;;;;4822748;29;20388;-80
2021/12/26 01:17:00;;;;;;;3.27;1.07;;;-4.70;56.90;;;;;;4821867;29;20130;-80
2021/12/26 01:19:32;;;;;;;3.37;1.30;;;-4.70;56.70;;;;;;4824832;29;20054;-80
2021/12/26 01:21:58;;;;;;;3.60;1.10;;;-4.70;56.60;;;;;;4811089;29;20087;-81
2021/12/26 01:24:24;;;;;;;3.23;1.13;;;-4.70;56.40;;;;;;4822262;29;20125;-81
2021/12/26 01:26:50;;;;;;;3.23;1.20;;;-4.70;56.20;;;;;;4825101;29;20050;-80
2021/12/26 01:29:15;;;;;;;3.13;1.20;;;-4.70;56.10;;;;;;4823973;29;20483;-81
2021/12/26 01:31:41;;;;;;;4.03;1.20;;;-4.70;56.10;;;;;;4826786;29;20134;-81
2021/12/26 01:34:07;;;;;;;2.70;1.00;;;-4.70;56.10;;;;;;4809792;29;20046;-81
2021/12/26 01:36:34;;;;;;;7.57;1.50;;;-4.70;55.70;;;;;;4827090;29;20046;-81
2021/12/26 01:39:02;;;;;;;2.80;1.37;;;-4.70;55.90;;;;;;4822668;29;20125;-81
2021/12/26 01:41:28;;;;;;;4.03;1.40;;;-4.70;55.80;;;;;;4810817;29;20097;-80
2021/12/26 01:43:58;;;;;;;3.60;1.07;;;-4.70;55.80;;;;;;4822759;29;20046;-80
2021/12/26 01:46:27;;;;;;;5.53;1.97;;;-4.70;55.70;;;;;;4826586;29;20059;-80
2021/12/26 01:49:09;;;;;;;3.83;1.13;;;-4.70;55.30;;;;;;4788747;29;20050;-81
2021/12/26 01:51:35;;;;;;;2.70;1.07;;;-4.70;55.50;;;;;;4826614;29;20340;-80
2021/12/26 01:54:07;;;;;;;3.30;1.03;;;-4.70;55.40;;;;;;4825991;29;20050;-80
2021/12/26 01:56:34;;;;;;;2.73;1.07;;;-4.70;55.30;;;;;;4810836;29;20058;-81
2021/12/26 01:59:00;;;;;;;3.90;1.20;;;-4.70;55.30;;;;;;4808126;29;20050;-80
2021/12/26 02:01:26;;;;;;;1.93;1.03;;;-4.70;55.20;;;;;;4807984;29;20062;-80
2021/12/26 02:03:53;;;;;;;5.10;1.10;;;-4.70;55.20;;;;;;4807497;29;20046;-80
2021/12/26 02:06:21;;;;;;;3.50;1.00;;;-4.70;55.50;;;;;;4826769;29;20050;-80
2021/12/26 02:08:47;;;;;;;3.53;1.17;;;-4.70;55.60;;;;;;4807131;29;20046;-80
2021/12/26 02:11:12;;;;;;;4.53;1.27;;;-4.70;55.50;;;;;;4822661;29;20049;-81
2021/12/26 02:13:38;;;;;;;2.90;1.00;;;-4.70;55.50;;;;;;4824452;29;20046;-81
2021/12/26 02:16:07;;;;;;;2.93;1.10;;;-4.70;55.30;;;;;;4824662;29;20049;-81
2021/12/26 02:18:33;;;;;;;2.40;1.40;;;-4.70;55.20;;;;;;4808853;29;20054;-81
2021/12/26 02:23:40;;;;;;;2.30;1.00;;;-4.70;55.30;;;;;;4817008;29;20486;-80
2021/12/26 02:28:45;;;;;;;3.20;1.13;;;-4.70;54.80;;;;;;4825060;29;20065;-80
2021/12/26 02:31:12;;;;;;;3.83;1.10;;;-4.70;54.90;;;;;;4819077;29;20374;-82
2021/12/26 02:33:38;;;;;;;3.07;1.13;;;-4.70;55.00;;;;;;4823169;29;20058;-82
2021/12/26 02:36:05;;;;;;;2.60;1.17;;;-4.80;54.80;;;;;;4825415;29;20050;-81
2021/12/26 02:38:32;;;;;;;2.83;1.23;;;-4.80;54.90;;;;;;4825926;29;20392;-81
2021/12/26 02:40:58;;;;;;;2.33;1.17;;;-4.80;54.60;;;;;;4801818;29;20087;-82
2021/12/26 02:43:27;;;;;;;4.07;1.97;;;-4.80;54.80;;;;;;4792512;29;20523;-82
2021/12/26 02:45:53;;;;;;;3.87;1.07;;;-4.80;54.70;;;;;;4803518;29;20050;-82
2021/12/26 02:48:19;;;;;;;2.67;1.10;;;-4.80;54.50;;;;;;4808050;29;20145;-82
2021/12/26 02:50:47;;;;;;;4.03;1.20;;;-4.80;54.70;;;;;;4823436;29;20042;-82
2021/12/26 02:53:20;;;;;;;2.40;1.20;;;-4.80;54.50;;;;;;4805725;29;20050;-81
2021/12/26 02:55:51;;;;;;;2.27;1.10;;;-4.80;54.50;;;;;;4820054;29;20046;-81
2021/12/26 02:58:17;;;;;;;3.47;1.20;;;-4.80;54.30;;;;;;4809481;29;20076;-82
2021/12/26 03:01:06;;;;;;;2.13;1.27;;;-4.80;54.60;;;;;;4823207;29;20498;-82
2021/12/26 03:03:31;;;;;;;3.13;1.30;;;-4.80;54.80;;;;;;4819273;29;20074;-82
2021/12/26 03:06:04;;;;;;;4.50;1.73;;;-4.80;54.90;;;;;;4822795;29;20085;-82
2021/12/26 03:08:30;;;;;;;1.97;0.90;;;-4.90;55.00;;;;;;4825633;29;20495;-82
2021/12/26 03:10:56;;;;;;;2.93;1.00;;;-4.90;55.10;;;;;;4823497;29;20065;-81
2021/12/26 03:13:22;;;;;;;5.13;1.13;;;-4.90;55.20;;;;;;4799147;29;20062;-82
2021/12/26 03:15:48;;;;;;;3.60;1.10;;;-4.90;55.20;;;;;;4799336;29;20380;-82
2021/12/26 03:18:14;;;;;;;2.53;1.00;;;-4.90;55.20;;;;;;4807892;29;20038;-82
2021/12/26 03:20:43;;;;;;;2.10;0.90;;;-4.90;55.20;;;;;;4815119;29;20054;-82
2021/12/26 03:23:12;;;;;;;2.83;1.17;;;-4.90;55.20;;;;;;4813384;29;20054;-82
2021/12/26 03:25:39;;;;;;;2.43;0.97;;;-4.90;55.40;;;;;;4805721;29;20053;-82
2021/12/26 03:28:07;;;;;;;2.20;1.00;;;-4.90;55.50;;;;;;4808380;29;20046;-82
2021/12/26 03:30:34;;;;;;;2.87;1.00;;;-4.90;55.50;;;;;;4823312;29;20489;-82
2021/12/26 03:33:01;;;;;;;2.80;0.97;;;-5.00;55.60;;;;;;4802094;29;20076;-82
2021/12/26 03:35:29;;;;;;;2.40;1.03;;;-5.00;55.90;;;;;;4812075;29;20082;-81
2021/12/26 03:37:57;;;;;;;5.47;1.10;;;-5.00;55.50;;;;;;4812732;29;20042;-82
2021/12/26 03:40:23;;;;;;;2.17;1.10;;;-5.00;55.50;;;;;;4806087;29;20157;-81
2021/12/26 03:42:51;;;;;;;2.63;1.30;;;-5.00;55.60;;;;;;4808630;29;20125;-82
2021/12/26 03:45:17;;;;;;;3.43;1.10;;;-5.00;55.70;;;;;;4803868;29;20134;-81
2021/12/26 03:47:48;;;;;;;2.67;0.97;;;-5.00;55.70;;;;;;4803647;29;20470;-82
2021/12/26 03:50:15;;;;;;;3.50;1.30;;;-5.00;55.70;;;;;;4807209;29;20046;-81
2021/12/26 03:52:41;;;;;;;11.17;3.30;;;-5.10;55.60;;;;;;4807691;29;20103;-82
2021/12/26 03:55:07;;;;;;;2.53;1.00;;;-5.00;55.40;;;;;;4822556;29;20359;-81
2021/12/26 03:57:33;;;;;;;2.90;1.20;;;-5.00;55.40;;;;;;4819027;29;20079;-81
2021/12/26 03:59:58;;;;;;;5.03;1.10;;;-5.00;55.00;;;;;;4806715;29;20074;-82
2021/12/26 04:02:24;;;;;;;4.90;1.77;;;-5.10;55.30;;;;;;4821157;29;20095;-81
2021/12/26 04:04:50;;;;;;;1.97;1.10;;;-5.10;55.60;;;;;;4807186;29;20045;-82
2021/12/26 04:07:16;;;;;;;2.97;1.20;;;-5.10;55.60;;;;;;4803952;29;20061;-82
2021/12/26 04:09:41;;;;;;;2.30;1.00;;;-5.10;55.40;;;;;;4823524;29;20067;-82
2021/12/26 04:12:07;;;;;;;4.20;1.60;;;-5.10;55.70;;;;;;4806426;29;20105;-82
2021/12/26 04:14:33;;;;;;;3.43;1.10;;;-5.10;55.70;;;;;;4824875;29;20464;-82
2021/12/26 04:16:59;;;;;;;4.07;1.03;;;-5.10;55.70;;;;;;4821556;29;20085;-82
2021/12/26 04:19:24;;;;;;;3.37;1.20;;;-5.10;55.50;;;;;;4806670;29;20437;-82
2021/12/26 04:21:50;;;;;;;2.57;1.20;;;-5.10;55.60;;;;;;4823186;29;20044;-81
2021/12/26 04:24:16;;;;;;;2.87;1.37;;;-5.10;55.70;;;;;;4810770;29;20475;-82
2021/12/26 04:26:41;;;;;;;2.23;1.23;;;-5.20;55.70;;;;;;4796919;29;20043;-82
2021/12/26 04:29:08;;;;;;;3.50;1.40;;;-5.20;55.80;;;;;;4822733;29;20133;-83
2021/12/26 04:31:34;;;;;;;3.20;1.30;;;-5.20;55.70;;;;;;4795536;29;20130;-83
2021/12/26 04:34:00;;;;;;;5.60;1.50;;;-5.20;55.50;;;;;;4818177;29;20117;-83
2021/12/26 04:36:26;;;;;;;2.40;1.10;;;-5.20;55.60;;;;;;4810722;29;20043;-80
2021/12/26 04:38:51;;;;;;;2.70;1.60;;;-5.20;55.60;;;;;;4824041;29;20510;-81
2021/12/26 04:41:17;;;;;;;3.13;1.17;;;-5.20;55.40;;;;;;4805330;29;20405;-80
2021/12/26 04:43:43;;;;;;;2.43;1.13;;;-5.20;55.60;;;;;;4807299;29;20510;-80
2021/12/26 04:46:09;;;;;;;4.83;1.60;;;-5.20;55.30;;;;;;4810390;29;20047;-81
2021/12/26 04:48:37;;;;;;;3.27;1.50;;;-5.20;55.60;;;;;;4840693;29;20050;-82
2021/12/26 04:51:05;;;;;;;3.03;1.27;;;-5.20;55.60;;;;;;4804060;29;20039;-82
2021/12/26 04:53:31;;;;;;;3.27;1.23;;;-5.10;55.70;;;;;;4808455;29;20095;-82
2021/12/26 04:55:57;;;;;;;4.33;2.33;;;-5.20;55.60;;;;;;4811724;29;20115;-82
2021/12/26 04:58:23;;;;;;;2.87;1.50;;;-5.20;56.00;;;;;;4827193;29;20042;-82
2021/12/26 05:00:48;;;;;;;4.43;1.90;;;-5.20;55.80;;;;;;4827622;29;20046;-82
2021/12/26 05:03:15;;;;;;;3.30;1.40;;;-5.20;55.80;;;;;;4820578;29;20049;-82
2021/12/26 05:05:41;;;;;;;4.60;1.30;;;-5.20;56.00;;;;;;4809660;29;20483;-82
2021/12/26 05:08:06;;;;;;;4.43;1.63;;;-5.30;56.00;;;;;;4821022;29;20054;-81
2021/12/26 05:10:32;;;;;;;3.97;1.60;;;-5.20;56.10;;;;;;4810653;29;20058;-82
2021/12/26 05:13:00;;;;;;;3.50;1.53;;;-5.30;56.10;;;;;;4826391;29;20108;-81
2021/12/26 05:15:26;;;;;;;3.10;1.37;;;-5.30;56.00;;;;;;4816444;29;20050;-81
2021/12/26 05:17:53;;;;;;;3.17;1.60;;;-5.30;56.00;;;;;;4826483;29;20091;-81
2021/12/26 05:20:20;;;;;;;4.23;1.50;;;-5.30;56.10;;;;;;4811032;29;20085;-81
2021/12/26 05:22:48;;;;;;;5.20;1.70;;;-5.30;56.20;;;;;;4806834;29;20089;-81
2021/12/26 05:25:14;;;;;;;4.27;1.67;;;-5.30;56.20;;;;;;4779599;29;20042;-80
2021/12/26 05:27:40;;;;;;;3.77;1.50;;;-5.30;56.20;;;;;;4825441;29;20406;-80
2021/12/26 05:30:08;;;;;;;5.73;2.27;;;-5.30;56.30;;;;;;4809313;29;20046;-81
2021/12/26 05:32:34;;;;;;;4.53;2.47;;;-5.30;56.30;;;;;;4823440;29;20403;-81
2021/12/26 05:35:00;;;;;;;3.37;1.40;;;-5.30;56.30;;;;;;4807102;29;20058;-80
2021/12/26 05:37:26;;;;;;;3.87;1.50;;;-5.30;56.50;;;;;;4810036;29;20054;-81
2021/12/26 05:39:51;;;;;;;3.63;1.50;;;-5.30;56.50;;;;;;4810857;29;20483;-81
2021/12/26 05:42:17;;;;;;;2.97;1.60;;;-5.30;56.40;;;;;;4809518;29;20078;-80
2021/12/26 05:44:44;;;;;;;3.33;1.40;;;-5.30;56.40;;;;;;4824537;29;20095;-82
2021/12/26 05:47:10;;;;;;;4.43;1.70;;;-5.30;56.40;;;;;;4803412;29;20051;-81
2021/12/26 05:49:36;;;;;;;3.87;1.70;;;-5.30;56.40;;;;;;4826145;29;20364;-81
2021/12/26 05:52:02;;;;;;;3.27;1.70;;;-5.30;56.20;;;;;;4810381;29;20486;-81
2021/12/26 05:54:28;;;;;;;4.43;2.33;;;-5.30;56.20;;;;;;4809775;29;20054;-81
2021/12/26 05:56:53;;;;;;;4.43;2.00;;;-5.30;56.00;;;;;;4793785;29;20056;-81
2021/12/26 05:59:19;;;;;;;16.90;3.97;;;-5.20;56.10;;;;;;4826655;29;20218;-81
2021/12/26 06:01:45;;;;;;;3.87;1.73;;;-5.20;55.80;;;;;;4799759;29;20086;-81
2021/12/26 06:04:10;;;;;;;5.40;2.27;;;-5.20;55.80;;;;;;4823850;29;20043;-81
2021/12/26 06:06:36;;;;;;;4.87;2.10;;;-5.20;55.40;;;;;;4823599;29;20054;-80
2021/12/26 06:09:03;;;;;;;5.70;1.80;;;-5.20;55.40;;;;;;4825473;29;20117;-82
2021/12/26 06:11:29;;;;;;;3.57;1.73;;;-5.10;55.40;;;;;;4810080;29;20356;-81
2021/12/26 06:13:55;;;;;;;4.90;1.80;;;-5.10;55.40;;;;;;4825456;29;20057;-81
2021/12/26 06:16:21;;;;;;;4.23;2.40;;;-5.10;55.20;;;;;;4824493;29;20046;-81
2021/12/26 06:18:46;;;;;;;2.53;1.70;;;-5.10;55.10;;;;;;4823900;29;20042;-81
2021/12/26 06:21:12;;;;;;;4.83;1.97;;;-5.00;55.10;;;;;;4826101;29;20042;-81
2021/12/26 06:23:38;;;;;;;4.20;1.70;;;-5.00;55.10;;;;;;4825316;29;20046;-81
2021/12/26 06:26:03;;;;;;;4.97;1.90;;;-5.00;55.10;;;;;;4808633;29;20479;-82
2021/12/26 06:28:29;;;;;;;4.37;1.97;;;-5.00;55.10;;;;;;4807413;29;20175;-81
2021/12/26 06:30:54;;;;;;;6.63;2.00;;;-5.00;55.10;;;;;;4825073;29;20038;-81
2021/12/26 06:33:20;;;;;;;2.30;1.40;;;-5.00;55.10;;;;;;4825357;29;20053;-81
2021/12/26 06:35:46;;;;;;;3.77;2.00;;;-5.00;55.10;;;;;;4826170;29;20057;-81
2021/12/26 06:38:11;;;;;;;4.40;2.53;;;-5.00;55.10;;;;;;4823879;29;20043;-81
2021/12/26 06:40:37;;;;;;;5.67;2.03;;;-5.00;55.10;;;;;;4824335;29;20501;-81
2021/12/26 06:43:03;;;;;;;4.77;1.90;;;-5.00;55.20;;;;;;4825158;29;20046;-81
2021/12/26 06:45:29;;;;;;;3.73;2.00;;;-5.00;55.20;;;;;;4823858;29;20095;-81
2021/12/26 06:47:56;;;;;;;4.30;1.63;;;-5.00;55.20;;;;;;4824059;29;20441;-81
2021/12/26 06:50:21;;;;;;;4.47;1.70;;;-5.00;55.10;;;;;;4803979;29;20631;-81
2021/12/26 06:52:48;;;;;;;2.87;1.50;;;-5.00;55.20;;;;;;4825855;29;20050;-81
2021/12/26 06:55:14;;;;;;;4.80;1.50;;;-5.00;55.40;;;;;;4813748;29;20446;-81
2021/12/26 06:57:40;;;;;;;4.53;2.10;;;-5.00;55.40;;;;;;4807729;29;20059;-81
2021/12/26 07:00:09;;;;;;;3.50;2.27;;;-5.00;55.40;;;;;;4803125;29;20046;-81
2021/12/26 07:02:35;;;;;;;4.00;2.43;;;-5.00;55.30;;;;;;4807964;29;20050;-81
2021/12/26 07:05:02;;;;;;;4.30;1.93;;;-5.00;55.70;;;;;;4817701;29;20054;-81
2021/12/26 07:07:27;;;;;;;5.47;1.80;;;-5.00;55.40;;;;;;4825729;29;20054;-81
2021/12/26 07:09:53;;;;;;;5.53;3.33;;;-5.00;55.40;;;;;;4823076;29;20050;-81
2021/12/26 07:12:19;;;;;;;5.07;2.03;;;-5.00;55.20;;;;;;4824105;29;20060;-81
2021/12/26 07:14:44;;;;;;;3.93;1.80;;;-5.00;55.40;;;;;;4807466;29;20045;-82
2021/12/26 07:17:10;;;;;;;3.30;1.83;;;-5.00;55.40;;;;;;4825104;29;20046;-81
2021/12/26 07:19:38;;;;;;;4.47;1.93;;;-5.00;55.40;;;;;;4805097;29;20444;-81
2021/12/26 07:22:04;;;;;;;5.77;2.83;;;-5.00;55.50;;;;;;4800346;29;20131;-81
2021/12/26 07:24:30;;;;;;;4.27;2.43;;;-5.00;55.50;;;;;;4807977;29;20163;-81
2021/12/26 07:26:56;;;;;;;3.60;2.10;;;-5.00;55.50;;;;;;4825514;29;20513;-81
2021/12/26 07:29:22;;;;;;;4.33;1.80;;;-5.00;55.50;;;;;;4798451;29;20629;-81
2021/12/26 07:31:47;;;;;;;4.07;2.10;;;-5.00;55.60;;;;;;4821473;29;20054;-81
2021/12/26 07:34:13;;;;;;;4.40;1.90;;;-5.00;55.70;;;;;;4824604;29;20052;-80
2021/12/26 07:36:39;;;;;;;2.70;1.57;;;-5.00;55.80;;;;;;4824097;29;20054;-81
2021/12/26 07:39:05;;;;;;;4.37;2.10;;;-5.00;55.80;;;;;;4808514;29;20395;-80
2021/12/26 07:41:31;;;;;;;3.00;1.50;;;-5.00;55.80;;;;;;4807300;29;20058;-81
2021/12/26 07:43:57;;;;;;;3.50;1.40;;;-5.00;55.80;;;;;;4793118;29;20090;-81
2021/12/26 07:46:22;;;;;;;3.93;1.60;;;-5.00;55.90;;;;;;4794420;29;20100;-81
2021/12/26 07:48:48;;;;;;;4.20;1.67;;;-5.00;55.90;;;;;;4808333;29;20136;-81
2021/12/26 07:51:14;;;;;;;4.07;1.77;;;-5.00;55.90;;;;;;4794872;29;20134;-81
2021/12/26 07:53:40;;;;;;;4.03;2.00;;;-5.00;55.90;;;;;;4797094;29;20146;-81
2021/12/26 07:56:06;;;;;;;5.90;2.30;;;-5.00;56.00;;;;;;4809774;29;20055;-81
2021/12/26 07:58:32;;;;;;;3.67;1.83;;;-5.00;56.00;;;;;;4806782;29;20404;-81
2021/12/26 08:00:57;;;;;;;4.13;1.73;;;-5.00;56.00;;;;;;4809297;29;20050;-81
2021/12/26 08:03:23;;;;;;;3.80;1.73;;;-5.00;56.00;;;;;;4815294;29;20059;-81
2021/12/26 08:05:49;;;;;;;3.67;1.70;;;-5.00;56.10;;;;;;4793848;29;20495;-82
2021/12/26 08:08:15;;;;;;;3.30;1.63;;;-5.00;56.00;;;;;;4807807;29;20519;-80
2021/12/26 08:10:40;;;;;;;5.17;2.00;;;-5.00;56.00;;;;;;4818934;29;20396;-81
2021/12/26 08:13:06;;;;;;;4.13;1.50;;;-5.00;56.00;;;;;;4824711;29;20091;-80
2021/12/26 08:15:32;;;;;;;4.80;2.30;;;-5.00;56.00;;;;;;4799443;29;20424;-81
2021/12/26 08:17:57;;;;;;;4.67;1.97;;;-5.00;56.00;;;;;;4806532;29;20043;-82
2021/12/26 08:20:23;;;;;;;4.87;2.07;;;-5.00;56.00;;;;;;4819902;29;20126;-79
2021/12/26 08:22:49;;;;;;;5.07;2.07;;;-5.00;56.00;;;;;;4806699;29;20051;-81
2021/12/26 08:25:14;;;;;;;6.23;2.17;;;-5.00;56.00;;;;;;4815135;29;20066;-80
2021/12/26 08:27:40;;;;;;;3.47;1.87;;;-5.00;56.00;;;;;;4809428;29;20050;-82
2021/12/26 08:30:07;;;;;;;4.00;2.03;;;-4.90;56.00;;;;;;4796383;29;20073;-81
2021/12/26 08:32:36;;;;;;;3.83;2.07;;;-4.90;56.00;;;;;;4811013;29;20093;-81
2021/12/26 08:35:04;;;;;;;6.17;3.07;;;-4.90;56.00;;;;;;4816097;29;20047;-80
2021/12/26 08:37:31;;;;;;;5.20;2.50;;;-4.90;56.10;;;;;;4822673;29;20457;-81
2021/12/26 08:39:56;;;;;;;4.50;2.00;;;-4.90;56.00;;;;;;4818753;29;20100;-80
2021/12/26 08:42:22;;;;;;;5.17;2.50;;;-4.80;56.10;;;;;;4815642;29;20038;-80
2021/12/26 08:44:52;;;;;;;5.13;2.80;;;-4.80;56.10;;;;;;4827752;29;20233;-81
2021/12/26 08:47:18;;;;;;;5.40;2.20;;;-4.80;56.00;;;;;;4808654;29;20050;-81
2021/12/26 08:49:44;;;;;;;5.33;2.60;;;-4.70;56.10;;;;;;4812338;29;20128;-80
2021/12/26 08:52:10;;;;;;;6.53;3.63;;;-4.70;56.10;;;;;;4822329;29;20061;-82
2021/12/26 08:54:37;;;;;;;3.80;2.20;;;-4.60;56.20;;;;;;4825223;29;20066;-82
2021/12/26 08:57:04;;;;;;;4.17;2.20;;;-4.60;56.10;;;;;;4824890;29;20099;-82
2021/12/26 08:59:30;;;;;;;5.23;2.83;;;-4.50;56.30;;;;;;4828030;29;20175;-79
2021/12/26 09:02:02;;;;;;;4.63;2.47;;;-4.50;56.00;;;;;;4810354;29;20060;-78
2021/12/26 09:04:29;;;;;;;5.73;2.60;;;-4.50;56.10;;;;;;4827714;29;20039;-81
2021/12/26 09:06:55;;;;;;;5.67;3.10;;;-4.40;56.10;;;;;;4826908;29;20436;-81
2021/12/26 09:09:20;;;;;;;6.03;2.93;;;-4.40;56.00;;;;;;4825315;29;20154;-81
2021/12/26 09:11:46;;;;;;;7.03;2.60;;;-4.30;55.40;;;;;;4824256;29;20081;-82
2021/12/26 09:14:12;;;;;;;3.87;2.20;;;-4.20;55.00;;;;;;4809959;29;20398;-82
2021/12/26 09:16:38;;;;;;;4.03;2.17;;;-4.10;54.60;;;;;;4825862;29;20146;-84
2021/12/26 09:19:05;;;;;;;6.50;2.90;;;-4.00;54.50;;;;;;4832271;29;20044;-82
2021/12/26 09:21:31;;;;;;;5.50;2.70;;;-3.90;54.30;;;;;;4825171;29;20046;-85
2021/12/26 09:23:57;;;;;;;7.03;2.57;;;-3.90;54.20;;;;;;4810446;29;20051;-83
2021/12/26 09:26:23;;;;;;;5.83;2.43;;;-3.80;54.20;;;;;;4794765;29;20053;-85
2021/12/26 09:28:49;;;;;;;4.83;2.70;;;-3.70;54.00;;;;;;4819867;29;20035;-82
2021/12/26 09:31:15;;;;;;;6.83;3.27;;;-3.70;53.90;;;;;;4809248;29;20053;-77
2021/12/26 09:33:41;;;;;;;4.83;3.13;;;-3.60;54.00;;;;;;4818452;29;20046;-78
2021/12/26 09:36:06;;;;;;;7.80;2.77;;;-3.50;54.00;;;;;;4820365;29;20061;-78
2021/12/26 09:38:32;;;;;;;5.33;2.50;;;-3.50;54.20;;;;;;4818876;29;20082;-77
2021/12/26 09:40:59;;;;;;;5.50;2.30;;;-3.40;54.30;;;;;;4822332;29;20054;-78
2021/12/26 09:43:25;;;;;;;6.27;2.53;;;-3.30;54.30;;;;;;4822462;29;20081;-77
2021/12/26 09:45:51;;;;;;;6.40;3.03;;;-3.30;54.40;;;;;;4833309;29;20070;-77
2021/12/26 09:48:17;;;;;;;6.63;3.03;;;-3.20;54.30;;;;;;4839909;29;20490;-78
2021/12/26 09:50:42;;;;;;;6.00;3.47;;;-3.20;53.80;;;;;;4804614;29;20121;-77
2021/12/26 09:53:08;;;;;;;5.87;2.73;;;-3.10;53.80;;;;;;4822624;29;20062;-78
2021/12/26 09:55:34;;;;;;;7.07;2.87;;;-3.10;53.60;;;;;;4824615;29;20053;-78
2021/12/26 09:58:00;;;;;;;5.80;3.00;;;-3.10;53.80;;;;;;4823760;29;20097;-77
2021/12/26 10:00:34;;;;;;;5.80;2.87;;;-3.10;53.80;;;;;;4796845;29;20458;-76
2021/12/26 10:03:30;;;;;;;5.07;3.28;;;-3.10;53.90;;;;;;4819651;29;20061;-77
2021/12/26 10:06:17;;;;;;;6.07;3.13;;;-3.10;54.20;;;;;;4822593;29;20047;-77
2021/12/26 10:08:55;;;;;;;5.73;2.67;;;-3.10;54.40;;;;;;4819414;29;20046;-78
2021/12/26 10:11:23;;;;;;;6.13;3.10;;;-3.00;54.50;;;;;;4799797;29;20083;-76
2021/12/26 10:13:56;;;;;;;5.43;3.10;;;-3.00;54.60;;;;;;4824594;29;20053;-76
2021/12/26 10:16:25;;;;;;;6.33;3.67;;;-3.00;54.50;;;;;;4805650;29;20062;-77
2021/12/26 10:18:51;;;;;;;7.67;4.17;;;-2.90;54.50;;;;;;4805685;29;20050;-77
2021/12/26 10:21:30;;;;;;;7.63;5.07;;;-2.80;54.60;;;;;;4821598;29;20047;-78
2021/12/26 10:24:06;;;;;;;6.63;3.67;;;-2.70;54.90;;;;;;4807401;29;20061;-77
2021/12/26 10:26:38;;;;;;;5.37;3.43;;;-2.70;55.00;;;;;;4807807;29;20133;-77
2021/12/26 10:29:10;;;;;;;6.80;3.30;;;-2.60;55.00;;;;;;4804917;29;20133;-77
2021/12/26 10:31:41;;;;;;;5.07;3.13;;;-2.50;55.00;;;;;;4825612;29;20060;-77
2021/12/26 10:34:07;;;;;;;4.53;2.80;;;-2.50;55.00;;;;;;4806813;29;20065;-78
2021/12/26 10:36:40;;;;;;;5.47;3.17;;;-2.40;54.90;;;;;;4822247;29;20042;-78
2021/12/26 10:39:12;;;;;;;6.95;3.20;;;-2.30;54.70;;;;;;4807760;29;20050;-78
2021/12/26 10:41:50;;;;;;;7.37;3.40;;;-2.30;54.50;;;;;;4809548;29;20046;-77
2021/12/26 10:44:25;;;;;;;5.87;3.40;;;-2.20;54.90;;;;;;4820975;29;20084;-77
2021/12/26 10:46:54;;;;;;;7.70;3.70;;;-2.10;54.90;;;;;;4823743;29;20043;-76
2021/12/26 10:49:23;;;;;;;8.47;4.00;;;-2.10;54.90;;;;;;4823539;29;20061;-77
2021/12/26 10:51:49;;;;;;;7.20;4.43;;;-2.10;54.80;;;;;;4808750;29;20062;-77
2021/12/26 10:54:18;;;;;;;7.07;4.03;;;-2.00;55.00;;;;;;4824302;29;20050;-76
2021/12/26 10:57:10;;;;;;;5.33;3.37;;;-2.00;54.90;;;;;;4824027;29;20046;-79
2021/12/26 10:59:38;;;;;;;7.80;3.50;;;-1.90;54.20;;;;;;4820486;29;20053;-78
2021/12/26 11:02:05;;;;;;;5.60;3.37;;;-1.90;54.10;;;;;;4825517;29;20119;-78
2021/12/26 11:04:30;;;;;;;6.60;3.60;;;-1.80;53.90;;;;;;4825584;29;20042;-78
2021/12/26 11:07:10;;;;;;;5.80;3.50;;;-1.80;54.30;;;;;;4824526;29;20586;-78
2021/12/26 11:09:36;;;;;;;8.03;3.57;;;-1.70;54.60;;;;;;4789964;29;20051;-78
2021/12/26 11:12:09;;;;;;;5.30;3.07;;;-1.70;54.70;;;;;;4825447;29;20125;-79
2021/12/26 11:14:58;;;;;;;8.17;4.10;;;-1.70;54.40;;;;;;4802577;29;20061;-78
2021/12/26 11:17:31;;;;;;;6.73;3.90;;;-1.70;54.60;;;;;;4808628;29;20372;-79
2021/12/26 11:19:57;;;;;;;5.40;3.23;;;-1.70;55.00;;;;;;4806380;29;20050;-75
2021/12/26 11:22:27;;;;;;;6.10;3.60;;;-1.60;55.20;;;;;;4825668;29;20181;-81
2021/12/26 11:24:53;;;;;;;7.03;4.07;;;-1.60;55.20;;;;;;4825240;29;20047;-77
2021/12/26 11:27:24;;;;;;;7.77;4.50;;;-1.50;55.20;;;;;;4826544;29;20086;-81
2021/12/26 11:29:49;;;;;;;7.00;4.00;;;-1.50;55.10;;;;;;4820978;29;20057;-75
2021/12/26 11:32:16;;;;;;;9.50;4.90;;;-1.50;55.10;;;;;;4825163;29;20042;-77
2021/12/26 11:34:46;;;;;;;7.47;4.60;;;-1.40;55.00;;;;;;4805229;29;20085;-76
2021/12/26 11:37:12;;;;;;;8.53;4.57;;;-1.40;55.20;;;;;;4809210;29;20050;-75
2021/12/26 11:39:40;;;;;;;9.33;4.30;;;-1.40;55.30;;;;;;4817706;29;20051;-75
2021/12/26 11:42:05;;;;;;;13.93;5.10;;;-1.40;55.40;;;;;;4824474;29;20054;-76
2021/12/26 11:44:51;;;;;;;12.20;6.17;;;-1.30;55.30;;;;;;4806802;29;20058;-75
2021/12/26 11:47:24;;;;;;;13.27;5.83;;;-1.30;55.10;;;;;;4802185;29;20118;-76
2021/12/26 11:50:18;;;;;;;6.37;4.50;;;-1.30;55.20;;;;;;4802769;29;20103;-75
2021/12/26 11:53:12;;;;;;;6.83;4.20;;;-1.30;55.30;;;;;;4818992;29;20064;-76
2021/12/26 11:55:49;;;;;;;8.00;4.67;;;-1.30;55.60;;;;;;4803775;29;20057;-74
2021/12/26 11:58:43;;;;;;;7.87;4.17;;;-1.20;55.80;;;;;;4809130;29;20076;-75
2021/12/26 12:01:14;;;;;;;10.00;5.63;;;-1.20;55.60;;;;;;4820914;29;20558;-76
2021/12/26 12:03:40;;;;;;;7.43;4.10;;;-1.20;55.80;;;;;;4801519;29;20054;-76
2021/12/26 12:06:06;;;;;;;6.63;3.73;;;-1.20;56.00;;;;;;4815766;29;20107;-75
2021/12/26 12:08:35;;;;;;;7.17;3.80;;;-1.10;56.10;;;;;;4809037;29;20470;-76
2021/12/26 12:11:11;;;;;;;7.23;4.50;;;-1.10;56.10;;;;;;4821875;29;20042;-76
2021/12/26 12:13:46;;;;;;;9.27;4.70;;;-1.10;56.10;;;;;;4821083;29;20042;-75
2021/12/26 12:16:34;;;;;;;8.70;4.63;;;-1.00;56.10;;;;;;4802862;29;20145;-77
2021/12/26 12:19:04;;;;;;;6.90;4.60;;;-1.00;56.20;;;;;;4804090;29;20136;-76
2021/12/26 12:21:51;;;;;;;7.70;4.53;;;-1.00;56.30;;;;;;4820844;29;20050;-76
2021/12/26 12:24:26;;;;;;;8.00;4.97;;;-0.90;56.20;;;;;;4822402;29;20121;-77
2021/12/26 12:27:07;;;;;;;7.60;4.23;;;-0.90;56.40;;;;;;4821627;29;20062;-76
2021/12/26 12:29:42;;;;;;;9.13;5.27;;;-0.90;56.40;;;;;;4804284;29;20107;-81
2021/12/26 12:32:08;;;;;;;8.27;4.77;;;-0.80;56.50;;;;;;4805354;29;20150;-78
2021/12/26 12:34:55;;;;;;;13.53;6.63;;;-0.80;56.30;;;;;;4825771;29;20082;-77
2021/12/26 12:37:42;;;;;;;7.37;4.23;;;-0.80;56.10;;;;;;4818724;29;20055;-76
2021/12/26 12:40:26;;;;;;;12.50;6.97;;;-0.80;56.30;;;;;;4802958;29;20509;-76
2021/12/26 12:43:09;;;;;;;11.97;6.90;;;-0.70;56.40;;;;;;4803447;29;20057;-76
2021/12/26 12:45:57;;;;;;;10.97;6.17;;;-0.70;56.60;;;;;;4819724;29;20046;-76
2021/12/26 12:48:33;;;;;;;17.90;8.63;;;-0.70;56.50;;;;;;4804350;29;20066;-77
2021/12/26 12:51:21;;;;;;;13.00;7.07;;;-0.70;56.70;;;;;;4821050;29;20402;-76
2021/12/26 12:53:50;;;;;;;13.80;7.70;;;-0.60;56.60;;;;;;4806950;29;20125;-77
2021/12/26 12:56:35;;;;;;;9.03;5.50;;;-0.60;56.70;;;;;;4820490;29;20061;-77